sensor_id;sensor_type;location;lat;lon;timestamp;pressure;altitude;pressure_sealevel;temperature;humidity
6204;BME280;3135;42.602;23.468;2024-02-16T00:00:06;90805.34;;;-145.88;100.00
6204;BME280;3135;42.602;23.468;2024-02-16T00:02:32;90883.22;;;-145.88;100.00
6204;BME280;3135;42.602;23.468;2024-02-16T00:04:58;90670.13;;;-145.88;100.00
6204;BME280;3135;42.602;23.468;2024-02-16T00:07:24;90793.06;;;-145.88;100.00
6204;BME280;3135;42.602;23.468;2024-02-16T00:09:49;90729.53;;;-145.88;100.00
6204;BME280;3135;42.602;23.468;2024-02-16T00:12:14;90786.91;;;-145.88;100.00
6204;BME280;3135;42.602;23.468;2024-02-16T00:14:42;90823.78;;;-145.88;100.00
6204;BME280;3135;42.602;23.468;2024-02-16T00:17:07;90885.25;;;-145.88;100.00
6204;BME280;3135;42.602;23.468;2024-02-16T00:19:35;90758.22;;;-145.88;100.00
6204;BME280;3135;42.602;23.468;2024-02-16T00:22:01;90887.31;;;-145.88;100.00
6204;BME280;3135;42.602;23.468;2024-02-16T00:24:26;90801.25;;;-145.88;100.00
6204;BME280;3135;42.602;23.468;2024-02-16T00:26:52;90735.69;;;-145.88;100.00
6204;BME280;3135;42.602;23.468;2024-02-16T00:29:17;90829.94;;;-145.88;100.00
6204;BME280;3135;42.602;23.468;2024-02-16T00:31:42;90887.31;;;-145.88;100.00
6204;BME280;3135;42.602;23.468;2024-02-16T00:34:08;90858.63;;;-145.88;100.00
6204;BME280;3135;42.602;23.468;2024-02-16T00:36:33;90786.91;;;-145.88;100.00
6204;BME280;3135;42.602;23.468;2024-02-16T00:38:59;90870.91;;;-145.88;100.00
6204;BME280;3135;42.602;23.468;2024-02-16T00:41:25;90834.03;;;-145.88;100.00
6204;BME280;3135;42.602;23.468;2024-02-16T00:43:51;90821.75;;;-145.88;100.00
6204;BME280;3135;42.602;23.468;2024-02-16T00:46:17;90801.25;;;-145.88;100.00
6204;BME280;3135;42.602;23.468;2024-02-16T00:48:43;90752.09;;;-145.88;100.00
6204;BME280;3135;42.602;23.468;2024-02-16T00:51:08;90877.06;;;-145.88;100.00
6204;BME280;3135;42.602;23.468;2024-02-16T00:53:34;90815.59;;;-145.88;100.00
6204;BME280;3135;42.602;23.468;2024-02-16T00:55:59;90842.25;;;-145.88;100.00
6204;BME280;3135;42.602;23.468;2024-02-16T00:58:25;90891.41;;;-145.88;100.00
6204;BME280;3135;42.602;23.468;2024-02-16T01:00:50;90897.56;;;-145.88;100.00
6204;BME280;3135;42.602;23.468;2024-02-16T01:03:16;90844.28;;;-145.88;100.00
6204;BME280;3135;42.602;23.468;2024-02-16T01:05:41;90766.44;;;-145.88;100.00
6204;BME280;3135;42.602;23.468;2024-02-16T01:08:07;90799.22;;;-145.88;100.00
6204;BME280;3135;42.602;23.468;2024-02-16T01:10:32;90786.91;;;-145.88;100.00
6204;BME280;3135;42.602;23.468;2024-02-16T01:12:57;90883.22;;;-145.88;100.00
6204;BME280;3135;42.602;23.468;2024-02-16T01:15:23;90850.44;;;-145.88;100.00
6204;BME280;3135;42.602;23.468;2024-02-16T01:17:49;90903.72;;;-145.88;100.00
6204;BME280;3135;42.602;23.468;2024-02-16T01:20:15;90842.25;;;-145.88;100.00
6204;BME280;3135;42.602;23.468;2024-02-16T01:22:41;90885.25;;;-145.88;100.00
6204;BME280;3135;42.602;23.468;2024-02-16T01:25:07;90918.06;;;-145.88;100.00
6204;BME280;3135;42.602;23.468;2024-02-16T01:27:33;90811.50;;;-145.88;100.00
6204;BME280;3135;42.602;23.468;2024-02-16T01:29:59;90373.06;;;-145.88;100.00
6204;BME280;3135;42.602;23.468;2024-02-16T01:32:26;90473.44;;;-145.88;100.00
6204;BME280;3135;42.602;23.468;2024-02-16T01:34:51;90905.75;;;-145.88;100.00
6204;BME280;3135;42.602;23.468;2024-02-16T01:37:17;90916.00;;;-145.88;100.00
6204;BME280;3135;42.602;23.468;2024-02-16T01:39:44;91723.41;;;-145.88;100.00
6204;BME280;3135;42.602;23.468;2024-02-16T01:42:10;91477.47;;;-145.88;100.00
6204;BME280;3135;42.602;23.468;2024-02-16T01:44:36;90850.44;;;-145.88;100.00
6204;BME280;3135;42.602;23.468;2024-02-16T01:47:03;90895.50;;;-145.88;100.00
6204;BME280;3135;42.602;23.468;2024-02-16T01:49:29;90823.78;;;-145.88;100.00
6204;BME280;3135;42.602;23.468;2024-02-16T01:51:56;90913.94;;;-145.88;100.00
6204;BME280;3135;42.602;23.468;2024-02-16T01:54:22;90881.16;;;-145.88;100.00
6204;BME280;3135;42.602;23.468;2024-02-16T01:56:48;90848.38;;;-145.88;100.00
6204;BME280;3135;42.602;23.468;2024-02-16T01:59:16;90762.31;;;-145.88;100.00
6204;BME280;3135;42.602;23.468;2024-02-16T02:01:42;90829.94;;;-145.88;100.00
6204;BME280;3135;42.602;23.468;2024-02-16T02:04:07;90842.25;;;-145.88;100.00
6204;BME280;3135;42.602;23.468;2024-02-16T02:06:33;90774.63;;;-145.88;100.00
6204;BME280;3135;42.602;23.468;2024-02-16T02:08:58;90733.63;;;-145.88;100.00
6204;BME280;3135;42.602;23.468;2024-02-16T02:11:24;90797.16;;;-145.88;100.00
6204;BME280;3135;42.602;23.468;2024-02-16T02:13:49;90801.25;;;-145.88;100.00
6204;BME280;3135;42.602;23.468;2024-02-16T02:16:15;90850.44;;;-145.88;100.00
6204;BME280;3135;42.602;23.468;2024-02-16T02:18:41;90850.44;;;-145.88;100.00
6204;BME280;3135;42.602;23.468;2024-02-16T02:21:08;90877.06;;;-145.88;100.00
6204;BME280;3135;42.602;23.468;2024-02-16T02:23:34;90850.44;;;-145.88;100.00
6204;BME280;3135;42.602;23.468;2024-02-16T02:26:01;90799.22;;;-145.88;100.00
6204;BME280;3135;42.602;23.468;2024-02-16T02:28:26;90846.34;;;-145.88;100.00
6204;BME280;3135;42.602;23.468;2024-02-16T02:30:51;90502.13;;;-145.88;100.00
6204;BME280;3135;42.602;23.468;2024-02-16T02:33:18;90961.06;;;-145.88;100.00
6204;BME280;3135;42.602;23.468;2024-02-16T02:35:45;90823.78;;;-145.88;100.00
6204;BME280;3135;42.602;23.468;2024-02-16T02:38:12;90772.56;;;-145.88;100.00
6204;BME280;3135;42.602;23.468;2024-02-16T02:40:37;90811.50;;;-145.88;100.00
6204;BME280;3135;42.602;23.468;2024-02-16T02:43:03;90829.94;;;-145.88;100.00
6204;BME280;3135;42.602;23.468;2024-02-16T02:45:29;90883.22;;;-145.88;100.00
6204;BME280;3135;42.602;23.468;2024-02-16T02:47:54;90711.09;;;-145.88;100.00
6204;BME280;3135;42.602;23.468;2024-02-16T02:50:20;90819.69;;;-145.88;100.00
6204;BME280;3135;42.602;23.468;2024-02-16T02:52:47;90821.75;;;-145.88;100.00
6204;BME280;3135;42.602;23.468;2024-02-16T02:55:12;90879.13;;;-145.88;100.00
6204;BME280;3135;42.602;23.468;2024-02-16T02:57:38;90870.91;;;-145.88;100.00
6204;BME280;3135;42.602;23.468;2024-02-16T03:00:05;91477.47;;;-145.88;100.00
6204;BME280;3135;42.602;23.468;2024-02-16T03:02:40;90809.44;;;-145.88;100.00
6204;BME280;3135;42.602;23.468;2024-02-16T03:05:06;90776.66;;;-145.88;100.00
6204;BME280;3135;42.602;23.468;2024-02-16T03:07:33;90909.84;;;-145.88;100.00
6204;BME280;3135;42.602;23.468;2024-02-16T03:09:58;90791.00;;;-145.88;100.00
6204;BME280;3135;42.602;23.468;2024-02-16T03:12:24;90868.88;;;-145.88;100.00
6204;BME280;3135;42.602;23.468;2024-02-16T03:14:49;90856.56;;;-145.88;100.00
6204;BME280;3135;42.602;23.468;2024-02-16T03:17:15;90819.69;;;-145.88;100.00
6204;BME280;3135;42.602;23.468;2024-02-16T03:19:40;90829.94;;;-145.88;100.00
6204;BME280;3135;42.602;23.468;2024-02-16T03:22:06;90846.34;;;-145.88;100.00
6204;BME280;3135;42.602;23.468;2024-02-16T03:24:31;90842.25;;;-145.88;100.00
6204;BME280;3135;42.602;23.468;2024-02-16T03:26:57;90891.41;;;-145.88;100.00
6204;BME280;3135;42.602;23.468;2024-02-16T03:29:22;90836.09;;;-145.88;100.00
6204;BME280;3135;42.602;23.468;2024-02-16T03:31:47;90825.84;;;-145.88;100.00
6204;BME280;3135;42.602;23.468;2024-02-16T03:34:13;90795.09;;;-145.88;100.00
6204;BME280;3135;42.602;23.468;2024-02-16T03:36:38;90637.34;;;-145.88;100.00
6204;BME280;3135;42.602;23.468;2024-02-16T03:39:04;90793.06;;;-145.88;100.00
6204;BME280;3135;42.602;23.468;2024-02-16T03:41:29;90875.03;;;-145.88;100.00
6204;BME280;3135;42.602;23.468;2024-02-16T03:43:55;90823.78;;;-145.88;100.00
6204;BME280;3135;42.602;23.468;2024-02-16T03:46:22;90897.56;;;-145.88;100.00
6204;BME280;3135;42.602;23.468;2024-02-16T03:48:48;90801.25;;;-145.88;100.00
6204;BME280;3135;42.602;23.468;2024-02-16T03:51:13;90768.47;;;-145.88;100.00
6204;BME280;3135;42.602;23.468;2024-02-16T03:53:38;90928.28;;;-145.88;100.00
6204;BME280;3135;42.602;23.468;2024-02-16T03:56:04;90875.03;;;-145.88;100.00
6204;BME280;3135;42.602;23.468;2024-02-16T03:58:31;90846.34;;;-145.88;100.00
6204;BME280;3135;42.602;23.468;2024-02-16T04:00:56;90920.09;;;-145.88;100.00
6204;BME280;3135;42.602;23.468;2024-02-16T04:03:22;90647.59;;;-145.88;100.00
6204;BME280;3135;42.602;23.468;2024-02-16T04:05:47;90766.44;;;-145.88;100.00
6204;BME280;3135;42.602;23.468;2024-02-16T04:08:13;90688.56;;;-145.88;100.00
6204;BME280;3135;42.602;23.468;2024-02-16T04:10:38;90727.50;;;-145.88;100.00
6204;BME280;3135;42.602;23.468;2024-02-16T04:13:04;90916.00;;;-145.88;100.00
6204;BME280;3135;42.602;23.468;2024-02-16T04:15:29;90852.47;;;-145.88;100.00
6204;BME280;3135;42.602;23.468;2024-02-16T04:17:55;90938.53;;;-145.88;100.00
6204;BME280;3135;42.602;23.468;2024-02-16T04:20:20;90883.22;;;-145.88;100.00
6204;BME280;3135;42.602;23.468;2024-02-16T04:22:46;90848.38;;;-145.88;100.00
6204;BME280;3135;42.602;23.468;2024-02-16T04:25:12;90879.13;;;-145.88;100.00
6204;BME280;3135;42.602;23.468;2024-02-16T04:27:37;91452.88;;;-145.88;100.00
6204;BME280;3135;42.602;23.468;2024-02-16T04:30:04;90932.41;;;-145.88;100.00
6204;BME280;3135;42.602;23.468;2024-02-16T04:32:30;90932.41;;;-145.88;100.00
6204;BME280;3135;42.602;23.468;2024-02-16T04:34:56;90848.38;;;-145.88;100.00
6204;BME280;3135;42.602;23.468;2024-02-16T04:37:22;90903.72;;;-145.88;100.00
6204;BME280;3135;42.602;23.468;2024-02-16T04:39:47;90920.09;;;-145.88;100.00
6204;BME280;3135;42.602;23.468;2024-02-16T04:42:13;90905.75;;;-145.88;100.00
6204;BME280;3135;42.602;23.468;2024-02-16T04:44:38;90911.91;;;-145.88;100.00
6204;BME280;3135;42.602;23.468;2024-02-16T04:47:04;90844.28;;;-145.88;100.00
6204;BME280;3135;42.602;23.468;2024-02-16T04:49:30;90530.81;;;-145.88;100.00
6204;BME280;3135;42.602;23.468;2024-02-16T04:51:55;90846.34;;;-145.88;100.00
6204;BME280;3135;42.602;23.468;2024-02-16T04:54:21;90856.56;;;-145.88;100.00
6204;BME280;3135;42.602;23.468;2024-02-16T04:56:47;90864.78;;;-145.88;100.00
6204;BME280;3135;42.602;23.468;2024-02-16T04:59:14;90825.84;;;-145.88;100.00
6204;BME280;3135;42.602;23.468;2024-02-16T05:01:39;90672.16;;;-145.88;100.00
6204;BME280;3135;42.602;23.468;2024-02-16T05:04:04;90875.03;;;-145.88;100.00
6204;BME280;3135;42.602;23.468;2024-02-16T05:06:30;90920.09;;;-145.88;100.00
6204;BME280;3135;42.602;23.468;2024-02-16T05:08:57;90821.75;;;-145.88;100.00
6204;BME280;3135;42.602;23.468;2024-02-16T05:11:22;90850.44;;;-145.88;100.00
6204;BME280;3135;42.602;23.468;2024-02-16T05:13:50;90875.03;;;-145.88;100.00
6204;BME280;3135;42.602;23.468;2024-02-16T05:16:16;90901.66;;;-145.88;100.00
6204;BME280;3135;42.602;23.468;2024-02-16T05:18:42;90717.25;;;-145.88;100.00
6204;BME280;3135;42.602;23.468;2024-02-16T05:21:07;90680.38;;;-145.88;100.00
6204;BME280;3135;42.602;23.468;2024-02-16T05:23:33;90821.75;;;-145.88;100.00
6204;BME280;3135;42.602;23.468;2024-02-16T05:25:58;91452.88;;;-145.88;100.00
6204;BME280;3135;42.602;23.468;2024-02-16T05:28:24;90891.41;;;-145.88;100.00
6204;BME280;3135;42.602;23.468;2024-02-16T05:30:49;90877.06;;;-145.88;100.00
6204;BME280;3135;42.602;23.468;2024-02-16T05:33:15;90913.94;;;-145.88;100.00
6204;BME280;3135;42.602;23.468;2024-02-16T05:35:40;90934.44;;;-145.88;100.00
6204;BME280;3135;42.602;23.468;2024-02-16T05:38:06;90922.16;;;-145.88;100.00
6204;BME280;3135;42.602;23.468;2024-02-16T05:40:36;90778.72;;;-145.88;100.00
6204;BME280;3135;42.602;23.468;2024-02-16T05:43:19;90893.47;;;-145.88;100.00
6204;BME280;3135;42.602;23.468;2024-02-16T05:45:45;90891.41;;;-145.88;100.00
6204;BME280;3135;42.602;23.468;2024-02-16T05:48:11;90801.25;;;-145.88;100.00
6204;BME280;3135;42.602;23.468;2024-02-16T05:50:37;90829.94;;;-145.88;100.00
6204;BME280;3135;42.602;23.468;2024-02-16T05:53:03;90799.22;;;-145.88;100.00
6204;BME280;3135;42.602;23.468;2024-02-16T05:55:28;90868.88;;;-145.88;100.00
6204;BME280;3135;42.602;23.468;2024-02-16T05:57:54;90913.94;;;-145.88;100.00
6204;BME280;3135;42.602;23.468;2024-02-16T06:00:20;90920.09;;;-145.88;100.00
6204;BME280;3135;42.602;23.468;2024-02-16T06:02:47;90799.22;;;-145.88;100.00
6204;BME280;3135;42.602;23.468;2024-02-16T06:05:12;90815.59;;;-145.88;100.00
6204;BME280;3135;42.602;23.468;2024-02-16T06:07:38;91026.66;;;-145.88;100.00
6204;BME280;3135;42.602;23.468;2024-02-16T06:10:05;90877.06;;;-145.88;100.00
6204;BME280;3135;42.602;23.468;2024-02-16T06:12:33;90844.28;;;-145.88;100.00
6204;BME280;3135;42.602;23.468;2024-02-16T06:14:58;90887.31;;;-145.88;100.00
6204;BME280;3135;42.602;23.468;2024-02-16T06:17:24;90895.50;;;-145.88;100.00
6204;BME280;3135;42.602;23.468;2024-02-16T06:19:50;90801.25;;;-145.88;100.00
6204;BME280;3135;42.602;23.468;2024-02-16T06:22:16;90926.25;;;-145.88;100.00
6204;BME280;3135;42.602;23.468;2024-02-16T06:24:41;90817.66;;;-145.88;100.00
6204;BME280;3135;42.602;23.468;2024-02-16T06:27:07;90770.53;;;-145.88;100.00
6204;BME280;3135;42.602;23.468;2024-02-16T06:29:35;90772.56;;;-145.88;100.00
6204;BME280;3135;42.602;23.468;2024-02-16T06:32:00;90834.03;;;-145.88;100.00
6204;BME280;3135;42.602;23.468;2024-02-16T06:34:27;90866.81;;;-145.88;100.00
6204;BME280;3135;42.602;23.468;2024-02-16T06:36:52;90827.91;;;-145.88;100.00
6204;BME280;3135;42.602;23.468;2024-02-16T06:39:18;90649.63;;;-145.88;100.00
6204;BME280;3135;42.602;23.468;2024-02-16T06:41:47;90764.38;;;-145.88;100.00
6204;BME280;3135;42.602;23.468;2024-02-16T06:44:13;90911.91;;;-145.88;100.00
6204;BME280;3135;42.602;23.468;2024-02-16T06:46:40;90887.31;;;-145.88;100.00
6204;BME280;3135;42.602;23.468;2024-02-16T06:49:05;91592.25;;;-145.88;100.00
6204;BME280;3135;42.602;23.468;2024-02-16T06:51:31;90739.78;;;-145.88;100.00
6204;BME280;3135;42.602;23.468;2024-02-16T06:53:56;90776.66;;;-145.88;100.00
6204;BME280;3135;42.602;23.468;2024-02-16T06:56:22;90827.91;;;-145.88;100.00
6204;BME280;3135;42.602;23.468;2024-02-16T06:58:47;90788.97;;;-145.88;100.00
6204;BME280;3135;42.602;23.468;2024-02-16T07:01:13;90821.75;;;-145.88;100.00
6204;BME280;3135;42.602;23.468;2024-02-16T07:03:39;90840.19;;;-145.88;100.00
6204;BME280;3135;42.602;23.468;2024-02-16T07:06:05;90788.97;;;-145.88;100.00
6204;BME280;3135;42.602;23.468;2024-02-16T07:08:37;90834.03;;;-145.88;100.00
6204;BME280;3135;42.602;23.468;2024-02-16T07:11:03;90754.13;;;-145.88;100.00
6204;BME280;3135;42.602;23.468;2024-02-16T07:13:30;91157.78;;;-145.88;100.00
6204;BME280;3135;42.602;23.468;2024-02-16T07:15:56;90780.75;;;-145.88;100.00
6204;BME280;3135;42.602;23.468;2024-02-16T07:18:21;90530.81;;;-145.88;100.00
6204;BME280;3135;42.602;23.468;2024-02-16T07:20:47;90821.75;;;-145.88;100.00
6204;BME280;3135;42.602;23.468;2024-02-16T07:23:12;90764.38;;;-145.88;100.00
6204;BME280;3135;42.602;23.468;2024-02-16T07:25:40;90797.16;;;-145.88;100.00
6204;BME280;3135;42.602;23.468;2024-02-16T07:28:06;90715.19;;;-145.88;100.00
6204;BME280;3135;42.602;23.468;2024-02-16T07:30:31;90747.97;;;-145.88;100.00
6204;BME280;3135;42.602;23.468;2024-02-16T07:32:57;90643.50;;;-145.88;100.00
6204;BME280;3135;42.602;23.468;2024-02-16T07:35:22;90768.47;;;-145.88;100.00
6204;BME280;3135;42.602;23.468;2024-02-16T07:37:50;90579.97;;;-145.88;100.00
6204;BME280;3135;42.602;23.468;2024-02-16T07:40:19;90731.59;;;-145.88;100.00
6204;BME280;3135;42.602;23.468;2024-02-16T07:42:45;90721.34;;;-145.88;100.00
6204;BME280;3135;42.602;23.468;2024-02-16T07:45:11;91379.13;;;-145.88;100.00
6204;BME280;3135;42.602;23.468;2024-02-16T07:47:38;90674.22;;;-145.88;100.00
6204;BME280;3135;42.602;23.468;2024-02-16T07:50:04;90686.53;;;-145.88;100.00
6204;BME280;3135;42.602;23.468;2024-02-16T07:52:31;90575.88;;;-145.88;100.00
6204;BME280;3135;42.602;23.468;2024-02-16T07:54:57;90727.50;;;-145.88;100.00
6204;BME280;3135;42.602;23.468;2024-02-16T07:57:23;90313.63;;;-145.88;100.00
6204;BME280;3135;42.602;23.468;2024-02-16T07:59:49;90627.09;;;-145.88;100.00
6204;BME280;3135;42.602;23.468;2024-02-16T08:02:14;90702.91;;;-145.88;100.00
6204;BME280;3135;42.602;23.468;2024-02-16T08:04:41;90641.44;;;-145.88;100.00
6204;BME280;3135;42.602;23.468;2024-02-16T08:07:07;90702.91;;;-145.88;100.00
6204;BME280;3135;42.602;23.468;2024-02-16T08:09:33;90676.28;;;-145.88;100.00
6204;BME280;3135;42.602;23.468;2024-02-16T08:11:59;90602.50;;;-145.88;100.00
6204;BME280;3135;42.602;23.468;2024-02-16T08:14:25;90637.34;;;-145.88;100.00
6204;BME280;3135;42.602;23.468;2024-02-16T08:16:50;90633.25;;;-145.88;100.00
6204;BME280;3135;42.602;23.468;2024-02-16T08:19:16;90657.84;;;-145.88;100.00
6204;BME280;3135;42.602;23.468;2024-02-16T08:21:41;90633.25;;;-145.88;100.00
6204;BME280;3135;42.602;23.468;2024-02-16T08:24:07;90623.00;;;-145.88;100.00
6204;BME280;3135;42.602;23.468;2024-02-16T08:26:32;91157.78;;;-145.88;100.00
6204;BME280;3135;42.602;23.468;2024-02-16T08:28:58;90608.66;;;-145.88;100.00
6204;BME280;3135;42.602;23.468;2024-02-16T08:31:23;90549.25;;;-145.88;100.00
6204;BME280;3135;42.602;23.468;2024-02-16T08:33:49;90516.47;;;-145.88;100.00
6204;BME280;3135;42.602;23.468;2024-02-16T08:36:15;90600.47;;;-145.88;100.00
6204;BME280;3135;42.602;23.468;2024-02-16T08:38:40;90661.94;;;-145.88;100.00
6204;BME280;3135;42.602;23.468;2024-02-16T08:41:06;90526.72;;;-145.88;100.00
6204;BME280;3135;42.602;23.468;2024-02-16T08:43:31;90481.63;;;-145.88;100.00
6204;BME280;3135;42.602;23.468;2024-02-16T08:45:57;90452.94;;;-145.88;100.00
6204;BME280;3135;42.602;23.468;2024-02-16T08:48:24;90627.09;;;-145.88;100.00
6204;BME280;3135;42.602;23.468;2024-02-16T08:50:50;90575.88;;;-145.88;100.00
6204;BME280;3135;42.602;23.468;2024-02-16T08:53:15;90534.91;;;-145.88;100.00
6204;BME280;3135;42.602;23.468;2024-02-16T08:55:42;91161.91;;;-145.88;100.00
6204;BME280;3135;42.602;23.468;2024-02-16T08:58:08;90522.59;;;-145.88;100.00
6204;BME280;3135;42.602;23.468;2024-02-16T09:00:34;90606.63;;;-145.88;100.00
6204;BME280;3135;42.602;23.468;2024-02-16T09:02:59;90229.63;;;-145.88;100.00
6204;BME280;3135;42.602;23.468;2024-02-16T09:05:28;90567.69;;;-145.88;100.00
6204;BME280;3135;42.602;23.468;2024-02-16T09:07:53;90467.28;;;-145.88;100.00
6204;BME280;3135;42.602;23.468;2024-02-16T09:10:19;90489.81;;;-145.88;100.00
6204;BME280;3135;42.602;23.468;2024-02-16T09:12:44;90522.59;;;-145.88;100.00
6204;BME280;3135;42.602;23.468;2024-02-16T09:15:09;90487.78;;;-145.88;100.00
6204;BME280;3135;42.602;23.468;2024-02-16T09:17:35;90979.53;;;-145.88;100.00
6204;BME280;3135;42.602;23.468;2024-02-16T09:20:00;90340.28;;;-145.88;100.00
6204;BME280;3135;42.602;23.468;2024-02-16T09:22:28;90440.66;;;-145.88;100.00
6204;BME280;3135;42.602;23.468;2024-02-16T09:24:53;90524.66;;;-145.88;100.00
6204;BME280;3135;42.602;23.468;2024-02-16T09:27:20;90385.34;;;-145.88;100.00
6204;BME280;3135;42.602;23.468;2024-02-16T09:29:46;90448.84;;;-145.88;100.00
6204;BME280;3135;42.602;23.468;2024-02-16T09:32:12;90424.25;;;-145.88;100.00
6204;BME280;3135;42.602;23.468;2024-02-16T09:34:38;90444.75;;;-145.88;100.00
6204;BME280;3135;42.602;23.468;2024-02-16T09:37:03;90483.69;;;-145.88;100.00
6204;BME280;3135;42.602;23.468;2024-02-16T09:39:29;90381.25;;;-145.88;100.00
6204;BME280;3135;42.602;23.468;2024-02-16T09:41:55;90205.06;;;-145.88;100.00
6204;BME280;3135;42.602;23.468;2024-02-16T09:44:22;90436.56;;;-145.88;100.00
6204;BME280;3135;42.602;23.468;2024-02-16T09:46:47;90405.81;;;-145.88;100.00
6204;BME280;3135;42.602;23.468;2024-02-16T09:49:13;90379.19;;;-145.88;100.00
6204;BME280;3135;42.602;23.468;2024-02-16T09:51:38;90747.97;;;-145.88;100.00
6204;BME280;3135;42.602;23.468;2024-02-16T09:54:04;90207.09;;;-145.88;100.00
6204;BME280;3135;42.602;23.468;2024-02-16T09:56:29;90323.88;;;-145.88;100.00
6204;BME280;3135;42.602;23.468;2024-02-16T09:58:55;90313.63;;;-145.88;100.00
6204;BME280;3135;42.602;23.468;2024-02-16T10:01:22;90379.19;;;-145.88;100.00
6204;BME280;3135;42.602;23.468;2024-02-16T10:03:49;90379.19;;;-145.88;100.00
6204;BME280;3135;42.602;23.468;2024-02-16T10:06:15;90315.69;;;-145.88;100.00
6204;BME280;3135;42.602;23.468;2024-02-16T10:08:48;90287.00;;;-145.88;100.00
6204;BME280;3135;42.602;23.468;2024-02-16T10:11:15;90309.53;;;-145.88;100.00
6204;BME280;3135;42.602;23.468;2024-02-16T10:13:41;90368.94;;;-145.88;100.00
6204;BME280;3135;42.602;23.468;2024-02-16T10:16:11;90256.28;;;-145.88;100.00
6204;BME280;3135;42.602;23.468;2024-02-16T10:18:38;90366.91;;;-145.88;100.00
6204;BME280;3135;42.602;23.468;2024-02-16T10:21:04;90383.28;;;-145.88;100.00
6204;BME280;3135;42.602;23.468;2024-02-16T10:23:30;90237.84;;;-145.88;100.00
6204;BME280;3135;42.602;23.468;2024-02-16T10:25:57;90325.94;;;-145.88;100.00
6204;BME280;3135;42.602;23.468;2024-02-16T10:28:24;90311.59;;;-145.88;100.00
6204;BME280;3135;42.602;23.468;2024-02-16T10:30:57;90362.81;;;-145.88;100.00
6204;BME280;3135;42.602;23.468;2024-02-16T10:33:24;90264.47;;;-145.88;100.00
6204;BME280;3135;42.602;23.468;2024-02-16T10:35:51;90317.72;;;-145.88;100.00
6204;BME280;3135;42.602;23.468;2024-02-16T10:38:19;90086.25;;;-145.88;100.00
6204;BME280;3135;42.602;23.468;2024-02-16T10:40:47;90151.78;;;-145.88;100.00
6204;BME280;3135;42.602;23.468;2024-02-16T10:43:13;90170.22;;;-145.88;100.00
6204;BME280;3135;42.602;23.468;2024-02-16T10:45:39;90563.59;;;-145.88;100.00
6204;BME280;3135;42.602;23.468;2024-02-16T10:48:06;90211.19;;;-145.88;100.00
6204;BME280;3135;42.602;23.468;2024-02-16T10:50:34;90221.44;;;-145.88;100.00
6204;BME280;3135;42.602;23.468;2024-02-16T10:53:26;90250.13;;;-145.88;100.00
6204;BME280;3135;42.602;23.468;2024-02-16T10:55:57;90180.47;;;-145.88;100.00
6204;BME280;3135;42.602;23.468;2024-02-16T10:58:23;90838.13;;;-145.88;100.00
6204;BME280;3135;42.602;23.468;2024-02-16T11:00:50;90200.97;;;-145.88;100.00
6204;BME280;3135;42.602;23.468;2024-02-16T11:03:17;90088.28;;;-145.88;100.00
6204;BME280;3135;42.602;23.468;2024-02-16T11:05:42;90119.00;;;-145.88;100.00
6204;BME280;3135;42.602;23.468;2024-02-16T11:08:14;90276.75;;;-145.88;100.00
6204;BME280;3135;42.602;23.468;2024-02-16T11:10:40;89920.31;;;-145.88;100.00
6204;BME280;3135;42.602;23.468;2024-02-16T11:13:06;90061.66;;;-145.88;100.00
6204;BME280;3135;42.602;23.468;2024-02-16T11:15:34;90211.19;;;-145.88;100.00
6204;BME280;3135;42.602;23.468;2024-02-16T11:18:01;90207.09;;;-145.88;100.00
6204;BME280;3135;42.602;23.468;2024-02-16T11:20:27;90032.97;;;-145.88;100.00
6204;BME280;3135;42.602;23.468;2024-02-16T11:22:53;90268.56;;;-145.88;100.00
6204;BME280;3135;42.602;23.468;2024-02-16T11:25:19;90145.66;;;-145.88;100.00
6204;BME280;3135;42.602;23.468;2024-02-16T11:27:47;90080.09;;;-145.88;100.00
6204;BME280;3135;42.602;23.468;2024-02-16T11:30:12;90088.28;;;-145.88;100.00
6204;BME280;3135;42.602;23.468;2024-02-16T11:32:38;89998.16;;;-145.88;100.00
6204;BME280;3135;42.602;23.468;2024-02-16T11:35:07;90073.94;;;-145.88;100.00
6204;BME280;3135;42.602;23.468;2024-02-16T11:37:33;90539.00;;;-145.88;100.00
6204;BME280;3135;42.602;23.468;2024-02-16T11:39:59;90149.75;;;-145.88;100.00
6204;BME280;3135;42.602;23.468;2024-02-16T11:42:25;90110.81;;;-145.88;100.00
6204;BME280;3135;42.602;23.468;2024-02-16T11:44:51;90065.75;;;-145.88;100.00
6204;BME280;3135;42.602;23.468;2024-02-16T11:47:22;90243.97;;;-145.88;100.00
6204;BME280;3135;42.602;23.468;2024-02-16T11:50:09;90176.38;;;-145.88;100.00
6204;BME280;3135;42.602;23.468;2024-02-16T11:52:38;90067.81;;;-145.88;100.00
6204;BME280;3135;42.602;23.468;2024-02-16T11:55:07;90127.22;;;-145.88;100.00
6204;BME280;3135;42.602;23.468;2024-02-16T11:57:34;89813.78;;;-145.88;100.00
6204;BME280;3135;42.602;23.468;2024-02-16T12:00:01;90127.22;;;-145.88;100.00
6204;BME280;3135;42.602;23.468;2024-02-16T12:02:32;90911.91;;;-145.88;100.00
6204;BME280;3135;42.602;23.468;2024-02-16T12:04:58;90121.06;;;-145.88;100.00
6204;BME280;3135;42.602;23.468;2024-02-16T12:07:27;90008.41;;;-145.88;100.00
6204;BME280;3135;42.602;23.468;2024-02-16T12:10:01;90157.94;;;-145.88;100.00
6204;BME280;3135;42.602;23.468;2024-02-16T12:12:27;90121.06;;;-145.88;100.00
6204;BME280;3135;42.602;23.468;2024-02-16T12:14:54;89785.13;;;-145.88;100.00
6204;BME280;3135;42.602;23.468;2024-02-16T12:17:19;90041.19;;;-145.88;100.00
6204;BME280;3135;42.602;23.468;2024-02-16T12:19:46;90157.94;;;-145.88;100.00
6204;BME280;3135;42.602;23.468;2024-02-16T12:22:21;90135.41;;;-145.88;100.00
6204;BME280;3135;42.602;23.468;2024-02-16T12:24:48;89879.34;;;-145.88;100.00
6204;BME280;3135;42.602;23.468;2024-02-16T12:27:15;90092.38;;;-145.88;100.00
6204;BME280;3135;42.602;23.468;2024-02-16T12:29:40;90022.75;;;-145.88;100.00
6204;BME280;3135;42.602;23.468;2024-02-16T12:32:06;90594.31;;;-145.88;100.00
6204;BME280;3135;42.602;23.468;2024-02-16T12:34:32;90145.66;;;-145.88;100.00